sensor_id;sensor_type;location;lat;lon;timestamp;pressure;altitude;pressure_sealevel;temperature;humidity
33422;BME280;19763;55.798;37.782;2023-05-21T00:02:08;150341.72;;;12.14;90.79
33422;BME280;19763;55.798;37.782;2023-05-21T00:04:38;150353.25;;;12.19;90.40
33422;BME280;19763;55.798;37.782;2023-05-21T00:07:07;150341.72;;;12.14;90.55
33422;BME280;19763;55.798;37.782;2023-05-21T00:09:34;150346.84;;;12.16;90.17
33422;BME280;19763;55.798;37.782;2023-05-21T00:12:01;150362.22;;;12.22;90.92
33422;BME280;19763;55.798;37.782;2023-05-21T00:14:26;150346.84;;;12.16;89.56
33422;BME280;19763;55.798;37.782;2023-05-21T00:16:52;150337.81;;;12.13;89.04
33422;BME280;19763;55.798;37.782;2023-05-21T00:19:17;150367.38;;;12.24;88.64
33422;BME280;19763;55.798;37.782;2023-05-21T00:21:43;150363.53;;;12.23;88.79
33422;BME280;19763;55.798;37.782;2023-05-21T00:24:10;150322.44;;;12.06;88.55
33422;BME280;19763;55.798;37.782;2023-05-21T00:26:36;150345.56;;;12.16;89.09
33422;BME280;19763;55.798;37.782;2023-05-21T00:29:02;150362.22;;;12.22;89.47
33422;BME280;19763;55.798;37.782;2023-05-21T00:31:28;150364.81;;;12.23;89.01
33422;BME280;19763;55.798;37.782;2023-05-21T00:33:54;150373.81;;;12.27;89.32
33422;BME280;19763;55.798;37.782;2023-05-21T00:36:20;150372.50;;;12.26;88.51
33422;BME280;19763;55.798;37.782;2023-05-21T00:38:48;150386.63;;;12.32;88.72
33422;BME280;19763;55.798;37.782;2023-05-21T00:41:14;150391.78;;;12.34;88.60
33422;BME280;19763;55.798;37.782;2023-05-21T00:43:41;150393.06;;;12.35;88.59
33422;BME280;19763;55.798;37.782;2023-05-21T00:46:17;150360.97;;;12.22;89.13
33422;BME280;19763;55.798;37.782;2023-05-21T00:48:47;150377.66;;;12.29;89.54
33422;BME280;19763;55.798;37.782;2023-05-21T00:51:14;150389.22;;;12.33;89.23
33422;BME280;19763;55.798;37.782;2023-05-21T00:53:41;150376.34;;;12.28;89.10
33422;BME280;19763;55.798;37.782;2023-05-21T00:56:07;150384.06;;;12.31;88.96
33422;BME280;19763;55.798;37.782;2023-05-21T00:58:33;150384.06;;;12.31;88.94
33422;BME280;19763;55.798;37.782;2023-05-21T01:01:00;150385.38;;;12.32;88.61
33422;BME280;19763;55.798;37.782;2023-05-21T01:03:29;150386.63;;;12.32;89.20
33422;BME280;19763;55.798;37.782;2023-05-21T01:05:54;150390.47;;;12.34;88.46
33422;BME280;19763;55.798;37.782;2023-05-21T01:08:25;150344.25;;;12.15;89.23
33422;BME280;19763;55.798;37.782;2023-05-21T01:10:53;150345.56;;;12.16;90.47
33422;BME280;19763;55.798;37.782;2023-05-21T01:13:20;150353.25;;;12.19;89.37
33422;BME280;19763;55.798;37.782;2023-05-21T01:15:48;150346.84;;;12.16;90.46
33422;BME280;19763;55.798;37.782;2023-05-21T01:18:15;150344.25;;;12.15;89.88
33422;BME280;19763;55.798;37.782;2023-05-21T01:20:41;150345.56;;;12.16;90.34
33422;BME280;19763;55.798;37.782;2023-05-21T01:23:16;150310.88;;;12.02;90.40
33422;BME280;19763;55.798;37.782;2023-05-21T01:25:42;150351.94;;;12.18;90.23
33422;BME280;19763;55.798;37.782;2023-05-21T01:28:08;150343.00;;;12.15;90.45
33422;BME280;19763;55.798;37.782;2023-05-21T01:30:34;150317.31;;;12.04;90.48
33422;BME280;19763;55.798;37.782;2023-05-21T01:33:14;150256.94;;;11.80;91.12
33422;BME280;19763;55.798;37.782;2023-05-21T01:36:28;150300.63;;;11.98;90.57
33422;BME280;19763;55.798;37.782;2023-05-21T01:38:40;150295.50;;;11.96;90.91
33422;BME280;19763;55.798;37.782;2023-05-21T01:41:10;150323.69;;;12.07;90.34
33422;BME280;19763;55.798;37.782;2023-05-21T01:43:38;150321.16;;;12.06;90.18
33422;BME280;19763;55.798;37.782;2023-05-21T01:46:09;150285.19;;;11.91;90.21
33422;BME280;19763;55.798;37.782;2023-05-21T01:48:35;150292.91;;;11.95;90.83
33422;BME280;19763;55.798;37.782;2023-05-21T01:51:03;150267.22;;;11.84;90.51
33422;BME280;19763;55.798;37.782;2023-05-21T01:53:29;150286.44;;;11.92;90.42
33422;BME280;19763;55.798;37.782;2023-05-21T01:55:55;150251.78;;;11.78;91.84
33422;BME280;19763;55.798;37.782;2023-05-21T01:58:20;150267.22;;;11.84;91.51
33422;BME280;19763;55.798;37.782;2023-05-21T02:00:47;150269.75;;;11.85;91.16
33422;BME280;19763;55.798;37.782;2023-05-21T02:03:15;150264.63;;;11.83;91.43
33422;BME280;19763;55.798;37.782;2023-05-21T02:05:41;150264.63;;;11.83;91.60
33422;BME280;19763;55.798;37.782;2023-05-21T02:08:07;150231.22;;;11.70;92.29
33422;BME280;19763;55.798;37.782;2023-05-21T02:10:33;150268.47;;;11.85;92.06
33422;BME280;19763;55.798;37.782;2023-05-21T02:12:59;150274.91;;;11.87;92.24
33422;BME280;19763;55.798;37.782;2023-05-21T02:15:24;150244.09;;;11.75;92.04
33422;BME280;19763;55.798;37.782;2023-05-21T02:17:50;150249.19;;;11.77;92.19
33422;BME280;19763;55.798;37.782;2023-05-21T02:20:16;150277.44;;;11.88;92.05
33422;BME280;19763;55.798;37.782;2023-05-21T02:22:44;150228.69;;;11.69;92.46
33422;BME280;19763;55.798;37.782;2023-05-21T02:25:11;150233.81;;;11.71;92.54
33422;BME280;19763;55.798;37.782;2023-05-21T02:27:38;150236.38;;;11.72;92.09
33422;BME280;19763;55.798;37.782;2023-05-21T02:30:06;150226.13;;;11.68;92.99
33422;BME280;19763;55.798;37.782;2023-05-21T02:32:33;150255.63;;;11.80;92.63
33422;BME280;19763;55.798;37.782;2023-05-21T02:34:59;150192.75;;;11.54;92.81
33422;BME280;19763;55.798;37.782;2023-05-21T02:37:26;150209.41;;;11.61;93.23
33422;BME280;19763;55.798;37.782;2023-05-21T02:39:53;150177.31;;;11.48;92.89
33422;BME280;19763;55.798;37.782;2023-05-21T02:42:19;150187.59;;;11.52;93.20
33422;BME280;19763;55.798;37.782;2023-05-21T02:44:44;150181.16;;;11.50;93.98
33422;BME280;19763;55.798;37.782;2023-05-21T02:47:10;150177.31;;;11.48;94.19
33422;BME280;19763;55.798;37.782;2023-05-21T02:49:36;150217.09;;;11.64;93.56
33422;BME280;19763;55.798;37.782;2023-05-21T02:52:02;150222.25;;;11.66;93.59
33422;BME280;19763;55.798;37.782;2023-05-21T02:54:28;150210.72;;;11.62;94.13
33422;BME280;19763;55.798;37.782;2023-05-21T02:56:54;150203.00;;;11.58;94.07
33422;BME280;19763;55.798;37.782;2023-05-21T02:59:19;150205.56;;;11.60;93.63
33422;BME280;19763;55.798;37.782;2023-05-21T03:01:45;150200.44;;;11.57;93.37
33422;BME280;19763;55.798;37.782;2023-05-21T03:04:11;150208.16;;;11.61;93.67
33422;BME280;19763;55.798;37.782;2023-05-21T03:06:36;150214.56;;;11.63;93.36
33422;BME280;19763;55.798;37.782;2023-05-21T03:09:02;150197.88;;;11.56;94.00
33422;BME280;19763;55.798;37.782;2023-05-21T03:11:30;150232.53;;;11.70;93.01
33422;BME280;19763;55.798;37.782;2023-05-21T03:13:56;150269.75;;;11.85;93.17
33422;BME280;19763;55.798;37.782;2023-05-21T03:16:21;150228.69;;;11.69;93.18
33422;BME280;19763;55.798;37.782;2023-05-21T03:18:47;150210.72;;;11.62;93.57
33422;BME280;19763;55.798;37.782;2023-05-21T03:21:13;150191.44;;;11.54;93.94
33422;BME280;19763;55.798;37.782;2023-05-21T03:23:40;150235.13;;;11.71;93.39
33422;BME280;19763;55.798;37.782;2023-05-21T03:26:07;150222.25;;;11.66;93.07
33422;BME280;19763;55.798;37.782;2023-05-21T03:28:34;150176.06;;;11.48;94.41
33422;BME280;19763;55.798;37.782;2023-05-21T03:31:00;150205.56;;;11.60;93.93
33422;BME280;19763;55.798;37.782;2023-05-21T03:33:25;150191.44;;;11.54;94.38
33422;BME280;19763;55.798;37.782;2023-05-21T03:35:51;150113.16;;;11.22;95.23
33422;BME280;19763;55.798;37.782;2023-05-21T03:38:16;150182.50;;;11.50;94.60
33422;BME280;19763;55.798;37.782;2023-05-21T03:40:42;150206.88;;;11.60;94.29
33422;BME280;19763;55.798;37.782;2023-05-21T03:43:08;150221.00;;;11.66;93.72
33422;BME280;19763;55.798;37.782;2023-05-21T03:45:33;150229.97;;;11.69;94.33
33422;BME280;19763;55.798;37.782;2023-05-21T03:47:59;150242.81;;;11.74;93.75
33422;BME280;19763;55.798;37.782;2023-05-21T03:50:26;150206.88;;;11.60;93.50
33422;BME280;19763;55.798;37.782;2023-05-21T03:52:51;150191.44;;;11.54;94.42
33422;BME280;19763;55.798;37.782;2023-05-21T03:55:17;150174.78;;;11.47;94.42
33422;BME280;19763;55.798;37.782;2023-05-21T03:57:43;150174.78;;;11.47;94.72
33422;BME280;19763;55.798;37.782;2023-05-21T04:00:09;150209.41;;;11.61;93.84
33422;BME280;19763;55.798;37.782;2023-05-21T04:02:34;150197.88;;;11.56;94.20
33422;BME280;19763;55.798;37.782;2023-05-21T04:05:00;150182.50;;;11.50;94.18
33422;BME280;19763;55.798;37.782;2023-05-21T04:07:26;150177.31;;;11.48;94.28
33422;BME280;19763;55.798;37.782;2023-05-21T04:09:54;150208.16;;;11.61;93.52
33422;BME280;19763;55.798;37.782;2023-05-21T04:12:20;150235.13;;;11.71;93.16
33422;BME280;19763;55.798;37.782;2023-05-21T04:14:46;150204.31;;;11.59;92.89
33422;BME280;19763;55.798;37.782;2023-05-21T04:17:12;150190.19;;;11.53;93.22
33422;BME280;19763;55.798;37.782;2023-05-21T04:19:38;150250.50;;;11.78;92.61
33422;BME280;19763;55.798;37.782;2023-05-21T04:22:04;150219.69;;;11.65;92.59
33422;BME280;19763;55.798;37.782;2023-05-21T04:24:30;150140.13;;;11.33;93.30
33422;BME280;19763;55.798;37.782;2023-05-21T04:26:55;150160.69;;;11.42;92.27
33422;BME280;19763;55.798;37.782;2023-05-21T04:29:26;150200.44;;;11.57;92.49
33422;BME280;19763;55.798;37.782;2023-05-21T04:31:51;150154.25;;;11.39;92.94
33422;BME280;19763;55.798;37.782;2023-05-21T04:34:17;150165.78;;;11.44;92.25
33422;BME280;19763;55.798;37.782;2023-05-21T04:36:46;150190.19;;;11.53;90.70
33422;BME280;19763;55.798;37.782;2023-05-21T04:39:12;150179.91;;;11.49;91.61
33422;BME280;19763;55.798;37.782;2023-05-21T04:41:38;150170.91;;;11.46;91.91
33422;BME280;19763;55.798;37.782;2023-05-21T04:44:08;150200.44;;;11.57;91.36
33422;BME280;19763;55.798;37.782;2023-05-21T04:46:33;150169.63;;;11.45;91.17
33422;BME280;19763;55.798;37.782;2023-05-21T04:49:02;150143.97;;;11.35;91.21
33422;BME280;19763;55.798;37.782;2023-05-21T04:51:29;150177.31;;;11.48;90.64
33422;BME280;19763;55.798;37.782;2023-05-21T04:53:54;150169.63;;;11.45;90.29
33422;BME280;19763;55.798;37.782;2023-05-21T04:56:25;150237.66;;;11.72;89.75
33422;BME280;19763;55.798;37.782;2023-05-21T04:58:54;150263.31;;;11.83;89.16
33422;BME280;19763;55.798;37.782;2023-05-21T05:01:20;150240.22;;;11.73;89.11
33422;BME280;19763;55.798;37.782;2023-05-21T05:03:51;150203.00;;;11.58;90.12
33422;BME280;19763;55.798;37.782;2023-05-21T05:06:17;150233.81;;;11.71;89.96
33422;BME280;19763;55.798;37.782;2023-05-21T05:08:43;150259.47;;;11.81;88.82
33422;BME280;19763;55.798;37.782;2023-05-21T05:11:11;150274.91;;;11.87;89.08
33422;BME280;19763;55.798;37.782;2023-05-21T05:13:38;150231.22;;;11.70;88.80
33422;BME280;19763;55.798;37.782;2023-05-21T05:16:04;150259.47;;;11.81;88.84
33422;BME280;19763;55.798;37.782;2023-05-21T05:18:30;150272.31;;;11.86;88.77
33422;BME280;19763;55.798;37.782;2023-05-21T05:20:57;150307.03;;;12.00;89.08
33422;BME280;19763;55.798;37.782;2023-05-21T05:23:23;150282.59;;;11.90;87.40
33422;BME280;19763;55.798;37.782;2023-05-21T05:25:48;150335.28;;;12.12;87.17
33422;BME280;19763;55.798;37.782;2023-05-21T05:28:14;150316.00;;;12.04;85.91
33422;BME280;19763;55.798;37.782;2023-05-21T05:30:39;150328.88;;;12.09;85.86
33422;BME280;19763;55.798;37.782;2023-05-21T05:33:05;150363.53;;;12.23;85.59
33422;BME280;19763;55.798;37.782;2023-05-21T05:35:30;150372.50;;;12.26;85.09
33422;BME280;19763;55.798;37.782;2023-05-21T05:37:56;150391.78;;;12.34;83.79
33422;BME280;19763;55.798;37.782;2023-05-21T05:40:22;150343.00;;;12.15;83.38
33422;BME280;19763;55.798;37.782;2023-05-21T05:42:48;150384.06;;;12.31;83.38
33422;BME280;19763;55.798;37.782;2023-05-21T05:45:13;150364.81;;;12.23;83.24
33422;BME280;19763;55.798;37.782;2023-05-21T05:47:39;150345.56;;;12.16;82.24
33422;BME280;19763;55.798;37.782;2023-05-21T05:50:05;150389.22;;;12.33;83.29
33422;BME280;19763;55.798;37.782;2023-05-21T05:52:31;150422.59;;;12.47;82.55
33422;BME280;19763;55.798;37.782;2023-05-21T05:54:56;150418.72;;;12.45;82.40
33422;BME280;19763;55.798;37.782;2023-05-21T05:57:22;150448.31;;;12.57;81.48
33422;BME280;19763;55.798;37.782;2023-05-21T05:59:47;150439.28;;;12.53;81.57
33422;BME280;19763;55.798;37.782;2023-05-21T06:02:13;150459.84;;;12.62;81.17
33422;BME280;19763;55.798;37.782;2023-05-21T06:04:39;150452.16;;;12.58;80.21
33422;BME280;19763;55.798;37.782;2023-05-21T06:07:04;150447.00;;;12.56;79.71
33422;BME280;19763;55.798;37.782;2023-05-21T06:09:30;150436.72;;;12.52;80.12
33422;BME280;19763;55.798;37.782;2023-05-21T06:11:55;150450.84;;;12.58;80.53
33422;BME280;19763;55.798;37.782;2023-05-21T06:14:21;150435.44;;;12.52;79.60
33422;BME280;19763;55.798;37.782;2023-05-21T06:16:46;150420.06;;;12.46;80.24
33422;BME280;19763;55.798;37.782;2023-05-21T06:19:12;150403.34;;;12.39;80.67
33422;BME280;19763;55.798;37.782;2023-05-21T06:21:38;150396.91;;;12.36;80.96
33422;BME280;19763;55.798;37.782;2023-05-21T06:24:03;150441.88;;;12.54;80.24
33422;BME280;19763;55.798;37.782;2023-05-21T06:26:29;150508.63;;;12.81;79.33
33422;BME280;19763;55.798;37.782;2023-05-21T06:28:55;150580.63;;;13.10;78.19
33422;BME280;19763;55.798;37.782;2023-05-21T06:31:20;150643.59;;;13.35;76.65
33422;BME280;19763;55.798;37.782;2023-05-21T06:33:47;150605.03;;;13.20;77.16
33422;BME280;19763;55.798;37.782;2023-05-21T06:36:14;150587.06;;;13.12;76.76
33422;BME280;19763;55.798;37.782;2023-05-21T06:38:40;150583.16;;;13.11;76.77
33422;BME280;19763;55.798;37.782;2023-05-21T06:41:07;150625.56;;;13.28;76.09
33422;BME280;19763;55.798;37.782;2023-05-21T06:43:33;150678.31;;;13.49;74.68
33422;BME280;19763;55.798;37.782;2023-05-21T06:45:58;150738.72;;;13.73;73.68
33422;BME280;19763;55.798;37.782;2023-05-21T06:48:24;150801.72;;;13.98;74.66
33422;BME280;19763;55.798;37.782;2023-05-21T06:50:49;150736.13;;;13.72;74.50
33422;BME280;19763;55.798;37.782;2023-05-21T06:53:15;150674.47;;;13.48;75.58
33422;BME280;19763;55.798;37.782;2023-05-21T06:55:41;150635.84;;;13.32;75.59
33422;BME280;19763;55.798;37.782;2023-05-21T06:58:10;150624.28;;;13.27;75.65
33422;BME280;19763;55.798;37.782;2023-05-21T07:00:35;150571.59;;;13.06;76.13
33422;BME280;19763;55.798;37.782;2023-05-21T07:03:01;150602.44;;;13.19;75.99
33422;BME280;19763;55.798;37.782;2023-05-21T07:05:27;150682.16;;;13.51;75.67
33422;BME280;19763;55.798;37.782;2023-05-21T07:07:52;150714.28;;;13.63;76.33
33422;BME280;19763;55.798;37.782;2023-05-21T07:10:18;150543.34;;;12.95;77.39
33422;BME280;19763;55.798;37.782;2023-05-21T07:12:45;150535.63;;;12.92;77.31
33422;BME280;19763;55.798;37.782;2023-05-21T07:15:10;150551.03;;;12.98;75.73
33422;BME280;19763;55.798;37.782;2023-05-21T07:17:36;150553.63;;;12.99;76.71
33422;BME280;19763;55.798;37.782;2023-05-21T07:20:02;150588.31;;;13.13;76.32
33422;BME280;19763;55.798;37.782;2023-05-21T07:22:30;150596.03;;;13.16;76.32
33422;BME280;19763;55.798;37.782;2023-05-21T07:24:56;150675.72;;;13.48;75.94
33422;BME280;19763;55.798;37.782;2023-05-21T07:27:22;150652.63;;;13.39;74.14
33422;BME280;19763;55.798;37.782;2023-05-21T07:29:47;150704.00;;;13.59;74.95
33422;BME280;19763;55.798;37.782;2023-05-21T07:32:13;150727.16;;;13.69;74.94
33422;BME280;19763;55.798;37.782;2023-05-21T07:34:38;150719.47;;;13.66;74.52
33422;BME280;19763;55.798;37.782;2023-05-21T07:37:04;150751.59;;;13.78;75.31
33422;BME280;19763;55.798;37.782;2023-05-21T07:39:30;150695.03;;;13.56;74.89
33422;BME280;19763;55.798;37.782;2023-05-21T07:41:55;150716.88;;;13.64;73.83
33422;BME280;19763;55.798;37.782;2023-05-21T07:44:21;150719.47;;;13.66;73.55
33422;BME280;19763;55.798;37.782;2023-05-21T07:46:47;150750.28;;;13.78;73.78
33422;BME280;19763;55.798;37.782;2023-05-21T07:49:13;150749.00;;;13.77;71.57
33422;BME280;19763;55.798;37.782;2023-05-21T07:51:43;150787.59;;;13.93;70.58
33422;BME280;19763;55.798;37.782;2023-05-21T07:54:09;150729.75;;;13.70;71.71
33422;BME280;19763;55.798;37.782;2023-05-21T07:56:35;150728.44;;;13.69;71.54
33422;BME280;19763;55.798;37.782;2023-05-21T07:59:00;150733.59;;;13.71;70.90
33422;BME280;19763;55.798;37.782;2023-05-21T08:01:26;150773.44;;;13.87;70.64
33422;BME280;19763;55.798;37.782;2023-05-21T08:03:54;150773.44;;;13.87;69.35
33422;BME280;19763;55.798;37.782;2023-05-21T08:06:20;150778.56;;;13.89;67.96
33422;BME280;19763;55.798;37.782;2023-05-21T08:08:46;150853.16;;;14.19;68.41
33422;BME280;19763;55.798;37.782;2023-05-21T08:11:12;150894.31;;;14.36;69.55
33422;BME280;19763;55.798;37.782;2023-05-21T08:13:38;150887.88;;;14.33;68.09
33422;BME280;19763;55.798;37.782;2023-05-21T08:16:04;150907.16;;;14.41;69.07
33422;BME280;19763;55.798;37.782;2023-05-21T08:18:30;150876.31;;;14.28;67.60
33422;BME280;19763;55.798;37.782;2023-05-21T08:20:56;150858.31;;;14.21;67.46
33422;BME280;19763;55.798;37.782;2023-05-21T08:23:22;150876.31;;;14.28;68.90
33422;BME280;19763;55.798;37.782;2023-05-21T08:25:47;150872.47;;;14.27;67.63
33422;BME280;19763;55.798;37.782;2023-05-21T08:28:13;150858.31;;;14.21;68.57
33422;BME280;19763;55.798;37.782;2023-05-21T08:30:38;150810.72;;;14.02;67.44
33422;BME280;19763;55.798;37.782;2023-05-21T08:33:04;150824.84;;;14.08;68.48
33422;BME280;19763;55.798;37.782;2023-05-21T08:35:30;150884.03;;;14.31;67.69
33422;BME280;19763;55.798;37.782;2023-05-21T08:37:55;150940.63;;;14.54;66.30
33422;BME280;19763;55.798;37.782;2023-05-21T08:40:21;151048.72;;;14.97;65.88
33422;BME280;19763;55.798;37.782;2023-05-21T08:42:48;151078.34;;;15.09;65.10
33422;BME280;19763;55.798;37.782;2023-05-21T08:45:19;151084.72;;;15.12;63.70
33422;BME280;19763;55.798;37.782;2023-05-21T08:47:46;151189.03;;;15.53;62.18
33422;BME280;19763;55.798;37.782;2023-05-21T08:50:15;151185.16;;;15.52;61.62
33422;BME280;19763;55.798;37.782;2023-05-21T08:52:41;151190.28;;;15.54;59.99
33422;BME280;19763;55.798;37.782;2023-05-21T08:55:07;151159.38;;;15.42;60.44
33422;BME280;19763;55.798;37.782;2023-05-21T08:57:33;151189.03;;;15.53;59.70
33422;BME280;19763;55.798;37.782;2023-05-21T08:59:59;151265.00;;;15.84;60.37
33422;BME280;19763;55.798;37.782;2023-05-21T09:02:27;151303.63;;;15.99;60.22
33422;BME280;19763;55.798;37.782;2023-05-21T09:04:55;151299.78;;;15.98;59.73
33422;BME280;19763;55.798;37.782;2023-05-21T09:07:24;151414.38;;;16.44;60.17
33422;BME280;19763;55.798;37.782;2023-05-21T09:09:56;151442.72;;;16.55;59.94
33422;BME280;19763;55.798;37.782;2023-05-21T09:12:23;151512.28;;;16.83;59.24
33422;BME280;19763;55.798;37.782;2023-05-21T09:14:50;151550.97;;;16.98;56.90
33422;BME280;19763;55.798;37.782;2023-05-21T09:17:16;151590.91;;;17.14;56.44
33422;BME280;19763;55.798;37.782;2023-05-21T09:20:04;151643.75;;;17.35;57.87
33422;BME280;19763;55.798;37.782;2023-05-21T09:22:35;151579.34;;;17.10;54.86
33422;BME280;19763;55.798;37.782;2023-05-21T09:25:05;151575.47;;;17.08;54.79
33422;BME280;19763;55.798;37.782;2023-05-21T09:27:32;151422.09;;;16.47;56.14
33422;BME280;19763;55.798;37.782;2023-05-21T09:29:58;151387.31;;;16.33;57.88
33422;BME280;19763;55.798;37.782;2023-05-21T09:32:24;151451.72;;;16.59;57.79
33422;BME280;19763;55.798;37.782;2023-05-21T09:34:50;151471.06;;;16.66;57.76
33422;BME280;19763;55.798;37.782;2023-05-21T09:37:15;151540.66;;;16.94;56.23
33422;BME280;19763;55.798;37.782;2023-05-21T09:39:41;151500.69;;;16.78;53.72
33422;BME280;19763;55.798;37.782;2023-05-21T09:42:07;151360.31;;;16.22;55.02
33422;BME280;19763;55.798;37.782;2023-05-21T09:44:33;151464.63;;;16.64;55.24
33422;BME280;19763;55.798;37.782;2023-05-21T09:47:01;151413.06;;;16.43;55.58
33422;BME280;19763;55.798;37.782;2023-05-21T09:49:26;151569.00;;;17.05;56.38
33422;BME280;19763;55.798;37.782;2023-05-21T09:51:58;151574.19;;;17.07;55.90
33422;BME280;19763;55.798;37.782;2023-05-21T09:54:25;151491.69;;;16.74;54.26
33422;BME280;19763;55.798;37.782;2023-05-21T09:56:55;151440.13;;;16.54;56.14
33422;BME280;19763;55.798;37.782;2023-05-21T09:59:20;151377.00;;;16.29;56.14
33422;BME280;19763;55.798;37.782;2023-05-21T10:01:49;151451.72;;;16.59;58.44
33422;BME280;19763;55.798;37.782;2023-05-21T10:04:16;151460.75;;;16.62;57.38
33422;BME280;19763;55.798;37.782;2023-05-21T10:06:42;151423.38;;;16.47;56.00
33422;BME280;19763;55.798;37.782;2023-05-21T10:09:09;151416.97;;;16.45;56.60
33422;BME280;19763;55.798;37.782;2023-05-21T10:11:36;151375.75;;;16.28;55.55
33422;BME280;19763;55.798;37.782;2023-05-21T10:14:06;151450.44;;;16.58;53.74
33422;BME280;19763;55.798;37.782;2023-05-21T10:16:33;151529.09;;;16.89;53.25
33422;BME280;19763;55.798;37.782;2023-05-21T10:18:59;151575.47;;;17.08;52.54
33422;BME280;19763;55.798;37.782;2023-05-21T10:21:25;151590.91;;;17.14;53.08
33422;BME280;19763;55.798;37.782;2023-05-21T10:23:52;151619.28;;;17.25;52.00
33422;BME280;19763;55.798;37.782;2023-05-21T10:26:18;151643.75;;;17.35;53.29
33422;BME280;19763;55.798;37.782;2023-05-21T10:28:47;151618.00;;;17.25;51.37
33422;BME280;19763;55.798;37.782;2023-05-21T10:31:13;151664.41;;;17.43;52.62
33422;BME280;19763;55.798;37.782;2023-05-21T10:33:40;151664.41;;;17.43;51.52
33422;BME280;19763;55.798;37.782;2023-05-21T10:36:06;151722.38;;;17.67;52.85
33422;BME280;19763;55.798;37.782;2023-05-21T10:38:32;151706.94;;;17.60;51.66
33422;BME280;19763;55.798;37.782;2023-05-21T10:40:58;151739.16;;;17.73;51.04
33422;BME280;19763;55.798;37.782;2023-05-21T10:43:51;151670.84;;;17.46;48.31
33422;BME280;19763;55.798;37.782;2023-05-21T10:52:03;151669.53;;;17.46;48.86
33422;BME280;19763;55.798;37.782;2023-05-21T10:59:53;151643.75;;;17.35;49.67
33422;BME280;19763;55.798;37.782;2023-05-21T11:02:20;151655.34;;;17.40;49.82
33422;BME280;19763;55.798;37.782;2023-05-21T11:04:47;151619.28;;;17.25;50.44
33422;BME280;19763;55.798;37.782;2023-05-21T11:07:13;151597.38;;;17.17;50.98
33422;BME280;19763;55.798;37.782;2023-05-21T11:09:39;151612.88;;;17.23;50.59
33422;BME280;19763;55.798;37.782;2023-05-21T11:12:05;151632.19;;;17.31;51.79
33422;BME280;19763;55.798;37.782;2023-05-21T11:14:39;151708.22;;;17.61;49.89
33422;BME280;19763;55.798;37.782;2023-05-21T11:19:38;151717.25;;;17.65;51.07
33422;BME280;19763;55.798;37.782;2023-05-21T11:22:25;151746.88;;;17.76;50.62
33422;BME280;19763;55.798;37.782;2023-05-21T11:24:52;151704.34;;;17.59;50.21
33422;BME280;19763;55.798;37.782;2023-05-21T11:27:35;151670.84;;;17.46;49.88
33422;BME280;19763;55.798;37.782;2023-05-21T11:30:08;151759.81;;;17.82;50.92
33422;BME280;19763;55.798;37.782;2023-05-21T11:32:38;151719.81;;;17.66;52.13
33422;BME280;19763;55.798;37.782;2023-05-21T11:35:04;151724.97;;;17.68;51.72
33422;BME280;19763;55.798;37.782;2023-05-21T11:37:31;151722.38;;;17.67;50.42
33422;BME280;19763;55.798;37.782;2023-05-21T11:40:23;151715.94;;;17.64;51.07
33422;BME280;19763;55.798;37.782;2023-05-21T11:42:55;151723.72;;;17.67;49.37
33422;BME280;19763;55.798;37.782;2023-05-21T11:45:27;151723.72;;;17.67;49.68
33422;BME280;19763;55.798;37.782;2023-05-21T11:47:53;151659.25;;;17.41;44.90
33422;BME280;19763;55.798;37.782;2023-05-21T11:50:20;151525.22;;;16.88;46.40
33422;BME280;19763;55.798;37.782;2023-05-21T11:52:46;151598.69;;;17.17;45.80
33422;BME280;19763;55.798;37.782;2023-05-21T11:55:13;151629.59;;;17.30;46.14
33422;BME280;19763;55.798;37.782;2023-05-21T11:57:43;151633.44;;;17.31;46.91
33422;BME280;19763;55.798;37.782;2023-05-21T12:00:14;151633.44;;;17.31;47.63
33422;BME280;19763;55.798;37.782;2023-05-21T12:02:48;151575.47;;;17.08;45.33
33422;BME280;19763;55.798;37.782;2023-05-21T12:05:14;151646.34;;;17.36;45.80
33422;BME280;19763;55.798;37.782;2023-05-21T12:07:40;151660.53;;;17.42;45.58
33422;BME280;19763;55.798;37.782;2023-05-21T12:10:07;151652.81;;;17.39;45.66
33422;BME280;19763;55.798;37.782;2023-05-21T12:12:33;151687.56;;;17.53;46.55
33422;BME280;19763;55.798;37.782;2023-05-21T12:15:00;151602.56;;;17.19;46.47
33422;BME280;19763;55.798;37.782;2023-05-21T12:17:26;151619.28;;;17.25;46.87
33422;BME280;19763;55.798;37.782;2023-05-21T12:19:55;151583.19;;;17.11;46.31
33422;BME280;19763;55.798;37.782;2023-05-21T12:22:24;151607.69;;;17.21;46.03
33422;BME280;19763;55.798;37.782;2023-05-21T12:24:52;151562.56;;;17.03;47.26
33422;BME280;19763;55.798;37.782;2023-05-21T12:27:18;151614.13;;;17.23;47.70
33422;BME280;19763;55.798;37.782;2023-05-21T12:29:48;151584.50;;;17.12;47.69
33422;BME280;19763;55.798;37.782;2023-05-21T12:32:15;151638.63;;;17.33;48.10
33422;BME280;19763;55.798;37.782;2023-05-21T12:34:50;151602.56;;;17.19;47.25
33422;BME280;19763;55.798;37.782;2023-05-21T12:37:25;151550.97;;;16.98;47.79
33422;BME280;19763;55.798;37.782;2023-05-21T12:39:52;151572.88;;;17.07;47.76
33422;BME280;19763;55.798;37.782;2023-05-21T12:42:25;151562.56;;;17.03;50.06
33422;BME280;19763;55.798;37.782;2023-05-21T12:44:52;151597.38;;;17.17;48.58
33422;BME280;19763;55.798;37.782;2023-05-21T12:47:18;151594.78;;;17.16;48.52
33422;BME280;19763;55.798;37.782;2023-05-21T12:49:46;151603.81;;;17.19;48.43
33422;BME280;19763;55.798;37.782;2023-05-21T12:52:13;151607.69;;;17.21;48.22
33422;BME280;19763;55.798;37.782;2023-05-21T12:54:41;151512.28;;;16.83;48.45